DW0677 Weather Reports


time (UTC)temp
F
wind
direction
speed
knots
gust
knots
rain 1hr
in
rain 24hr
in
rain mn
in
humidity
%
barometer
mb
20210927065833 62 117 2.6 7.0 0.10 0.16 0.16 94 1008.7
20210927065334 62 175 1.7 6.1 0.09 0.15 0.15 94 1008.7
20210927064833 61 128 1.7 5.2 0.09 0.15 0.15 94 1008.7
20210927064434 61 107 0.9 4.3 0.09 0.15 0.15 94 1008.7
20210927063843 61 138 1.7 4.3 0.09 0.15 0.15 93 1008.8
20210927063343 61 141 0.9 2.6 0.09 0.14 0.14 93 1008.9
20210927062841 61 131 0.9 2.6 0.10 0.14 0.14 93 1008.9
20210927062339 61 126 0.9 3.5 0.10 0.13 0.13 93 1008.9
20210927061840 61 165 0.9 3.5 0.10 0.13 0.13 93 1008.8
20210927061344 61 143 0.9 3.5 0.07 0.10 0.10 93 1008.9
20210927060823 62 180 1.7 3.5 0.04 0.07 0.07 92 1008.8
20210927060345 62 117 0.9 6.1 0.03 0.06 0.06 92 1008.8
20210927055824 62 113 2.6 8.7 0.03 0.06 0.06 92 1008.7
20210927055323 62 191 2.6 4.3 0.03 0.06 0.06 92 1008.5
20210927054826 62 130 1.7 7.8 0.03 0.06 0.06 91 1008.6
20210927054348 62 138 2.6 7.8 0.03 0.06 0.06 91 1008.5
20210927053844 62 130 2.6 7.8 0.03 0.06 0.06 91 1008.4
20210927053343 63 122 0.9 4.3 0.02 0.05 0.05 91 1008.4
20210927052841 63 126 0.9 7.0 0.01 0.04 0.04 90 1008.4
20210927052341 63 155 2.6 7.8 0.00 0.03 0.03 90 1008.5
20210927051840 63 97 2.6 7.8 0.00 0.03 0.03 90 1008.4
20210927051339 63 152 1.7 4.3 0.00 0.03 0.03 89 1008.4
20210927050842 63 140 1.7 4.3 0.00 0.03 0.03 89 1008.4
20210927050344 63 155 0.9 6.1 0.00 0.03 0.03 89 1008.4
20210927045845 63 143 3.5 6.1 0.00 0.03 0.03 88 1008.4
20210927045344 63 147 1.7 4.3 0.00 0.03 0.03 88 1008.3
20210927044843 63 143 1.7 4.3 0.00 0.03 0.03 87 1008.3
20210927044340 63 159 0.9 4.3 0.00 0.03 0.03 87 1008.3
20210927043840 64 147 0.9 5.2 0.00 0.03 0.03 85 1008.3
20210927043340 64 137 0.9 5.2 0.00 0.03 0.03 85 1008.2
20210927042837 64 140 1.7 8.7 0.00 0.03 0.03 84 1008.2
20210927042336 64 178 2.6 7.8 0.01 0.03 0.03 83 1008.2
20210927041835 65 195 3.5 7.8 0.02 0.03 0.03 82 1008.2
20210927041333 65 162 4.3 8.7 0.02 0.03 0.03 79 1008.2
20210927040835 65 125 4.3 6.1 0.02 0.03 0.03 78 1008.2
20210927040339 65 108 1.7 7.0 0.02 0.03 0.03 78 1008.2
20210927035836 65 147 2.6 7.0 0.02 0.03 0.03 80 1008.3
20210927035353 65 170 0.9 6.1 0.02 0.03 0.03 80 1008.0
20210927034850 64 179 1.7 4.3 0.02 0.03 0.03 80 1007.9
20210927034338 65 143 0.9 3.5 0.03 0.03 0.03 80 1007.8
20210927033829 65 139 0.0 3.5 0.03 0.03 0.03 80 1007.9
20210927033328 66 209 0.0 0.9 0.03 0.03 0.03 78 1008.0
20210927032829 66 209 0.0 0.9 0.03 0.03 0.03 77 1007.9
20210927032330 67 197 0.0 0.0 0.02 0.02 0.02 74 1008.0
20210927031831 67 197 0.0 0.9 0.01 0.01 0.01 70 1007.8
20210927031330 67 197 0.0 0.9 0.01 0.01 0.01 69 1007.5
20210927030829 67 207 0.0 0.9 0.01 0.01 0.01 69 1007.5
20210927030354 67 137 0.0 3.5 0.01 0.01 0.01 68 1007.5
20210927025846 67 137 0.0 7.0 0.01 0.01 0.01 68 1007.4
20210927025325 67 172 0.0 3.5 0.01 0.01 0.01 67 1007.4
20210927024831 67 168 0.9 5.2 0.01 0.01 0.01 68 1007.5
20210927024329 67 155 0.9 4.3 0.00 0.00 0.00 68 1007.5
20210927023849 68 166 0.0 7.0 0.00 0.00 0.00 67 1007.5
20210927023347 69 192 0.9 7.0 0.00 0.00 0.00 63 1007.6
20210927022843 70 205 2.6 7.0 0.00 0.00 0.00 61 1007.6
20210927022345 72 189 2.6 7.8 0.00 0.00 0.00 56 1007.8
20210927021826 72 149 0.9 7.8 0.00 0.00 0.00 48 1007.5
20210927021329 72 166 2.6 8.7 0.00 0.00 0.00 47 1007.3
20210927020826 72 170 1.7 8.7 0.00 0.00 0.00 47 1007.3
20210927020329 72 150 1.7 8.7 0.00 0.00 0.00 46 1007.4
20210927015830 72 157 2.6 8.7 0.00 0.00 0.00 46 1007.4
20210927015329 72 100 1.7 7.0 0.00 0.00 0.00 46 1007.4
20210927014828 72 142 3.5 7.8 0.00 0.00 0.00 46 1007.6
20210927014407 72 140 1.7 6.1 0.00 0.00 0.00 45 1007.5
20210927013842 72 118 2.6 6.1 0.00 0.00 0.00 46 1007.4
20210927013345 72 149 1.7 8.7 0.00 0.00 0.00 45 1007.3
20210927012843 72 135 2.6 8.7 0.00 0.00 0.00 45 1007.3
20210927012343 72 142 2.6 13.0 0.00 0.00 0.00 46 1007.2
20210927011844 72 145 4.3 13.0 0.00 0.00 0.00 45 1007.1
20210927011402 72 166 2.6 9.6 0.00 0.00 0.00 46 1007.3
20210927010857 72 176 3.5 7.8 0.00 0.00 0.00 46 1007.3
20210927010405 72 93 4.3 7.8 0.00 0.00 0.00 46 1007.5
20210927005854 72 132 2.6 7.8 0.00 0.00 0.00 46 1007.6
20210927005342 72 172 1.7 8.7 0.00 0.00 0.00 46 1007.6
20210927004842 72 182 4.3 8.7 0.00 0.00 0.00 46 1007.5
20210927004339 72 121 1.7 8.7 0.00 0.00 0.00 46 1007.6
20210927003838 72 49 2.6 8.7 0.00 0.00 0.00 45 1007.6
20210927003337 72 167 0.0 3.5 0.00 0.00 0.00 46 1007.7
20210927002838 72 167 0.9 7.0 0.00 0.00 0.00 45 1007.6
20210927002338 72 180 2.6 7.0 0.00 0.00 0.00 45 1007.5
20210927001835 72 118 0.9 7.8 0.00 0.00 0.00 44 1007.6
20210927001337 72 155 3.5 7.8 0.00 0.00 0.00 44 1007.7
20210927000839 72 136 1.7 7.8 0.00 0.00 0.00 44 1007.8
20210927000400 72 114 1.7 5.2 0.00 0.00 0.00 44 1007.8
20210926235851 72 169 2.6 7.8 0.00 0.00 0.00 43 1007.9
20210926235340 72 175 4.3 7.8 0.00 0.00 0.00 43 1007.9
20210926234839 73 167 0.9 6.1 0.00 0.00 0.00 44 1008.2
20210926234358 73 172 2.6 6.1 0.00 0.00 0.00 43 1008.2
20210926233842 73 160 3.5 9.6 0.00 0.00 0.00 44 1008.3
20210926233358 73 186 4.3 9.6 0.00 0.00 0.00 44 1008.3
20210926232839 73 165 3.5 7.8 0.00 0.00 0.00 44 1008.3
20210926232337 73 179 1.7 9.6 0.00 0.00 0.00 46 1008.4
20210926231836 73 176 1.7 9.6 0.00 0.00 0.00 46 1008.4
20210926231334 72 205 1.7 7.8 0.00 0.00 0.00 47 1008.5
20210926230837 72 167 3.5 7.8 0.00 0.00 0.00 46 1008.5
20210926230335 72 159 3.5 11.3 0.00 0.00 0.00 48 1008.5
20210926225839 72 166 4.3 11.3 0.00 0.00 0.00 47 1008.6
20210926225338 72 143 2.6 10.4 0.00 0.00 0.00 49 1008.6
20210926224836 72 174 2.6 10.4 0.00 0.00 0.00 50 1008.6
20210926224322 72 99 2.6 7.0 0.00 0.00 0.00 51 1008.6
20210926223824 72 76 1.7 7.0 0.00 0.00 0.00 51 1008.6
20210926223344 72 169 3.5 5.2 0.00 0.00 0.00 50 1008.7
20210926222841 72 120 0.9 5.2 0.00 0.00 0.00 51 1008.8
20210926222343 72 176 0.9 7.8 0.00 0.00 0.00 52 1008.8
20210926221841 72 76 3.5 7.8 0.00 0.00 0.00 49 1009.0
20210926221339 72 176 1.7 4.3 0.00 0.00 0.00 51 1009.0
20210926220838 72 141 0.0 3.5 0.00 0.00 0.00 50 1009.1
20210926220338 72 176 1.7 3.5 0.00 0.00 0.00 51 1009.1
20210926215838 73 189 0.9 5.2 0.00 0.00 0.00 50 1009.3
20210926215337 73 182 1.7 6.1 0.00 0.00 0.00 49 1009.4
20210926214835 74 172 0.9 5.2 0.00 0.00 0.00 47 1009.4
20210926214334 74 198 0.9 6.1 0.00 0.00 0.00 49 1009.6
20210926213837 74 143 2.6 6.1 0.00 0.00 0.00 47 1009.6
20210926213346 74 157 0.9 4.3 0.00 0.00 0.00 49 1009.7
20210926212824 74 177 0.9 5.2 0.00 0.00 0.00 50 1009.9
20210926212343 74 121 0.9 5.2 0.00 0.00 0.00 49 1009.9
20210926211841 73 156 0.9 5.2 0.00 0.00 0.00 51 1010.1
20210926211400 73 310 2.6 5.2 0.00 0.00 0.00 50 1010.2
20210926210913 73 244 0.9 6.1 0.00 0.00 0.00 51 1010.3
20210926210340 72 174 0.9 7.0 0.00 0.00 0.00 52 1010.4
20210926205839 72 181 2.6 6.1 0.00 0.00 0.00 53 1010.5
20210926205357 71 150 1.7 6.1 0.00 0.00 0.00 53 1010.6
20210926204829 72 145 2.6 7.0 0.00 0.00 0.00 52 1010.7
20210926204352 72 159 3.5 7.0 0.00 0.00 0.00 54 1010.8
20210926203840 72 161 0.9 7.0 0.00 0.00 0.00 54 1010.9
20210926203340 71 171 3.5 6.1 0.00 0.00 0.00 55 1011.0
20210926202838 71 95 0.9 4.3 0.00 0.00 0.00 55 1011.0
20210926202336 70 146 2.6 9.6 0.00 0.00 0.00 54 1011.0
20210926201835 70 88 4.3 9.6 0.00 0.00 0.00 56 1011.1
20210926201335 70 156 0.9 6.1 0.00 0.00 0.00 57 1011.1
20210926200853 69 151 3.5 6.1 0.00 0.00 0.00 57 1011.2
20210926200342 69 122 1.7 5.2 0.00 0.00 0.00 58 1011.3
20210926195840 69 89 1.7 7.0 0.00 0.00 0.00 57 1011.3
20210926195343 69 91 0.0 7.0 0.00 0.00 0.00 59 1011.3
20210926194831 69 168 2.6 6.1 0.00 0.00 0.00 60 1011.3
20210926194334 68 104 1.7 7.0 0.00 0.00 0.00 61 1011.5
20210926193825 68 94 1.7 7.0 0.00 0.00 0.00 61 1011.7
20210926193326 67 188 0.0 5.2 0.00 0.00 0.00 61 1011.8
20210926192822 67 175 0.9 5.2 0.00 0.00 0.00 62 1011.8
20210926192345 67 170 2.6 5.2 0.00 0.00 0.00 61 1012.0
20210926191841 67 134 0.9 6.1 0.00 0.00 0.00 62 1012.1
20210926191338 67 148 2.6 6.1 0.00 0.00 0.00 63 1012.1
20210926190837 66 187 3.5 6.1 0.00 0.00 0.00 62 1012.3
20210926190336 66 120 2.6 6.1 0.00 0.00 0.00 64 1012.3
20210926185833 65 155 3.5 6.1 0.00 0.00 0.00 64 1012.3
20210926185334 65 138 1.7 4.3 0.00 0.00 0.00 65 1012.3
20210926184837 64 167 0.9 7.0 0.00 0.00 0.00 66 1012.4
20210926184339 64 91 1.7 7.0 0.00 0.00 0.00 67 1012.4
20210926183839 63 171 3.5 6.1 0.00 0.00 0.00 68 1012.5
20210926183338 62 101 0.9 6.1 0.00 0.00 0.00 69 1012.6
20210926182835 62 139 0.9 7.0 0.00 0.00 0.00 69 1012.7
20210926182352 62 132 3.5 7.0 0.00 0.00 0.00 70 1012.8
20210926181902 62 109 3.5 7.0 0.00 0.00 0.00 70 1012.9
20210926181329 61 133 1.7 7.0 0.00 0.00 0.00 69 1013.0
20210926180831 61 192 0.9 7.0 0.00 0.00 0.00 70 1013.0
20210926180333 61 154 4.3 7.0 0.00 0.00 0.00 70 1013.0
20210926175835 61 161 2.6 8.7 0.00 0.00 0.00 69 1013.1
20210926175334 61 167 2.6 8.7 0.00 0.00 0.00 70 1013.1
20210926174833 61 148 0.9 7.0 0.00 0.00 0.00 69 1013.2
20210926174331 61 189 2.6 7.0 0.00 0.00 0.00 70 1013.2
20210926173830 61 126 1.7 7.0 0.00 0.00 0.00 70 1013.2
20210926173329 61 65 1.7 7.0 0.00 0.00 0.00 70 1013.3
20210926172836 61 180 3.5 7.0 0.00 0.00 0.00 70 1013.4
20210926172348 61 132 1.7 6.1 0.00 0.00 0.00 71 1013.5
20210926171837 60 126 1.7 6.1 0.00 0.00 0.00 73 1013.5
20210926171352 60 84 1.7 5.2 0.00 0.00 0.00 74 1013.7
20210926170842 60 140 1.7 6.1 0.00 0.00 0.00 75 1013.7
20210926170358 60 132 0.9 4.3 0.00 0.00 0.00 75 1013.8
20210926165831 60 78 1.7 5.2 0.00 0.00 0.00 76 1013.7
20210926165328 59 73 0.9 5.2 0.00 0.00 0.00 76 1013.6
20210926164830 59 95 1.7 6.1 0.00 0.00 0.00 76 1013.7
20210926164328 59 181 1.7 7.0 0.00 0.00 0.00 76 1013.8
20210926163827 59 124 1.7 4.3 0.00 0.00 0.00 76 1013.9
20210926163327 59 139 0.9 4.3 0.00 0.00 0.00 76 1013.9
20210926162844 59 118 0.0 2.6 0.00 0.00 0.00 77 1014.0
20210926162343 59 139 0.0 4.3 0.00 0.00 0.00 77 1014.0
20210926161842 59 109 0.9 4.3 0.00 0.00 0.00 77 1013.9
20210926161340 59 153 0.9 4.3 0.00 0.00 0.00 78 1013.9
20210926160840 58 122 0.0 2.6 0.00 0.00 0.00 78 1014.0
20210926160343 58 136 0.9 2.6 0.00 0.00 0.00 78 1014.1
20210926155841 58 142 0.0 2.6 0.00 0.00 0.00 79 1014.0
20210926155340 58 155 0.9 3.5 0.00 0.00 0.00 78 1014.1
20210926154839 58 148 0.9 4.3 0.00 0.00 0.00 78 1014.0
20210926154356 58 126 0.9 4.3 0.00 0.00 0.00 78 1013.8
20210926153829 58 111 0.0 1.7 0.00 0.00 0.00 78 1013.9
20210926153329 58 137 0.9 3.5 0.00 0.00 0.00 78 1013.9
20210926152829 58 145 0.9 3.5 0.00 0.00 0.00 78 1014.0
20210926152328 58 130 0.9 3.5 0.00 0.00 0.00 78 1013.9
20210926151826 58 174 0.0 4.3 0.00 0.00 0.00 79 1013.9
20210926151328 58 167 2.6 4.3 0.00 0.00 0.00 78 1013.9
20210926150827 58 139 0.0 4.3 0.00 0.00 0.00 79 1013.8
20210926150327 58 148 1.7 6.1 0.00 0.00 0.00 79 1013.8
20210926145823 58 172 0.9 6.1 0.00 0.00 0.00 79 1013.7
20210926145330 58 140 0.9 2.6 0.00 0.00 0.00 79 1013.8
20210926144850 58 148 0.9 2.6 0.00 0.00 0.00 80 1013.7
20210926144352 58 176 0.0 4.3 0.00 0.00 0.00 80 1013.8
20210926143826 58 137 1.7 5.2 0.00 0.00 0.00 80 1013.8
20210926143345 58 174 0.9 4.3 0.00 0.00 0.00 80 1013.7
20210926142840 58 139 0.9 2.6 0.00 0.00 0.00 80 1013.7
20210926142339 58 142 0.9 4.3 0.00 0.00 0.00 80 1013.8
20210926141836 58 146 0.9 4.3 0.00 0.00 0.00 80 1013.7
20210926141358 58 128 0.0 3.5 0.00 0.00 0.00 80 1013.6
20210926140842 58 153 0.9 3.5 0.00 0.00 0.00 80 1013.7
20210926140342 58 155 0.9 4.3 0.00 0.00 0.00 80 1013.6
20210926135838 58 139 0.9 4.3 0.00 0.00 0.00 80 1013.7
20210926135338 58 151 0.9 4.3 0.00 0.00 0.00 80 1013.6
20210926134835 58 143 1.7 4.3 0.00 0.00 0.00 80 1013.6
20210926134337 58 150 0.0 5.2 0.00 0.00 0.00 80 1013.6
20210926133835 58 156 2.6 5.2 0.00 0.00 0.00 80 1013.7
20210926133354 58 145 0.0 1.7 0.00 0.00 0.00 81 1013.7
20210926132841 58 145 0.0 2.6 0.00 0.00 0.00 81 1013.4
20210926132324 58 128 0.9 3.5 0.00 0.00 0.00 81 1013.5
20210926131825 57 111 1.7 6.1 0.00 0.00 0.00 81 1013.5
20210926131405 57 134 1.7 6.1 0.00 0.00 0.00 81 1013.6
20210926130837 57 157 0.9 2.6 0.00 0.00 0.00 81 1013.4
20210926130330 57 149 0.9 6.1 0.00 0.00 0.00 81 1013.2
20210926125828 57 124 1.7 6.1 0.00 0.00 0.00 81 1013.1
20210926125326 57 169 1.7 6.1 0.00 0.00 0.00 81 1013.2
20210926124824 57 95 0.9 6.1 0.00 0.00 0.00 82 1013.2
20210926124326 57 82 0.9 4.3 0.00 0.00 0.00 82 1013.3
20210926123824 57 78 0.9 2.6 0.00 0.00 0.00 82 1013.7
20210926123330 57 91 0.0 3.5 0.00 0.00 0.00 82 1013.7
20210926122828 57 137 0.9 3.5 0.00 0.00 0.00 81 1013.5
20210926122328 57 146 0.9 6.1 0.00 0.00 0.00 82 1013.5
20210926121831 57 147 1.7 6.1 0.00 0.00 0.00 82 1013.6
20210926121333 57 147 0.9 2.6 0.00 0.00 0.00 82 1013.7
20210926120831 57 122 0.9 5.2 0.00 0.00 0.00 82 1013.5
20210926120330 57 160 0.9 6.1 0.00 0.00 0.00 82 1013.4
20210926115827 57 153 2.6 5.2 0.00 0.00 0.00 82 1013.5
20210926115329 57 131 2.6 7.0 0.00 0.00 0.00 82 1013.7
20210926114831 57 154 2.6 7.0 0.00 0.00 0.00 82 1013.8
20210926114329 57 113 0.9 5.2 0.00 0.00 0.00 82 1013.7
20210926113828 57 140 1.7 3.5 0.00 0.00 0.00 82 1013.5
20210926113331 57 83 1.7 6.1 0.00 0.00 0.00 82 1013.1
20210926112830 57 61 1.7 6.1 0.00 0.00 0.00 82 1013.2
20210926112327 57 164 0.9 6.1 0.00 0.00 0.00 82 1013.3
20210926111827 57 126 1.7 4.3 0.00 0.00 0.00 82 1013.5
20210926111328 57 176 1.7 4.3 0.00 0.00 0.00 82 1013.6
20210926110831 57 172 0.9 4.3 0.00 0.00 0.00 82 1013.5
20210926110331 57 157 1.7 7.8 0.00 0.00 0.00 82 1013.5
20210926105909 57 126 2.6 7.8 0.00 0.00 0.00 82 1013.4
20210926105343 57 153 2.6 6.1 0.00 0.00 0.00 82 1013.5
20210926104859 57 152 1.7 6.1 0.00 0.00 0.00 82 1013.7
20210926104352 57 153 2.6 6.1 0.00 0.00 0.00 82 1013.9
20210926103844 57 174 1.7 6.1 0.00 0.00 0.00 82 1013.8
20210926103343 57 162 1.7 8.7 0.00 0.00 0.00 82 1013.3
20210926102841 57 176 1.7 8.7 0.00 0.00 0.00 82 1013.0
20210926102340 57 178 2.6 4.3 0.00 0.00 0.00 82 1012.9
20210926101841 57 193 0.9 5.2 0.00 0.00 0.00 82 1012.8
20210926101339 57 140 1.7 5.2 0.00 0.00 0.00 82 1012.9
20210926100838 57 161 0.9 4.3 0.00 0.00 0.00 83 1012.9
20210926100337 57 152 2.6 4.3 0.00 0.00 0.00 83 1013.1
20210926095835 56 111 1.7 3.5 0.00 0.00 0.00 84 1013.1
20210926095334 56 149 0.0 2.6 0.00 0.00 0.00 84 1013.1
20210926094831 56 161 0.0 6.1 0.00 0.00 0.00 85 1013.0
20210926094333 55 145 1.7 6.1 0.00 0.00 0.00 86 1013.1
20210926093855 55 217 0.0 0.0 0.00 0.00 0.00 86 1013.0
20210926093328 55 217 0.0 0.0 0.00 0.00 0.00 86 1012.9
20210926092910 55 217 0.0 0.0 0.00 0.00 0.00 85 1012.8
20210926092328 55 217 0.0 0.0 0.00 0.00 0.00 85 1012.8
20210926091827 55 217 0.0 0.0 0.00 0.00 0.00 85 1012.7
20210926091326 55 217 0.0 0.0 0.00 0.00 0.00 85 1012.7
20210926090845 56 217 0.0 0.0 0.00 0.00 0.00 84 1012.6
20210926090329 56 217 0.0 0.0 0.00 0.00 0.00 84 1012.6
20210926085829 56 217 0.0 0.0 0.00 0.00 0.00 84 1012.5
20210926085331 56 217 0.0 0.0 0.00 0.00 0.00 84 1012.5
20210926084828 56 217 0.0 0.0 0.00 0.00 0.00 83 1012.6
20210926084329 56 217 0.0 0.0 0.00 0.00 0.00 83 1012.6
20210926083831 56 217 0.0 0.0 0.00 0.00 0.00 82 1012.4
20210926083329 57 217 0.0 0.0 0.00 0.00 0.00 82 1012.5
20210926082834 57 217 0.0 0.0 0.00 0.00 0.00 82 1012.3
20210926082333 57 217 0.0 0.0 0.00 0.00 0.00 82 1012.3
20210926081836 57 217 0.0 0.0 0.00 0.00 0.00 81 1012.2
20210926081354 57 217 0.0 0.0 0.00 0.00 0.00 81 1012.4
20210926080842 58 217 0.0 0.0 0.00 0.00 0.00 81 1012.2
20210926080355 58 217 0.0 0.0 0.00 0.00 0.00 81 1012.1
20210926075827 58 217 0.0 0.0 0.00 0.00 0.00 80 1012.0
20210926075328 58 217 0.0 0.0 0.00 0.00 0.00 79 1011.9
20210926074827 58 217 0.0 0.0 0.00 0.00 0.00 80 1011.9
20210926074326 58 217 0.0 0.0 0.00 0.00 0.00 79 1011.9
20210926073826 58 217 0.0 0.0 0.00 0.00 0.00 79 1011.9
20210926073328 59 217 0.0 0.0 0.00 0.00 0.00 79 1011.9
20210926072830 59 217 0.0 0.0 0.00 0.00 0.00 78 1011.9
20210926072331 59 217 0.0 0.0 0.00 0.00 0.00 78 1011.8
20210926071830 59 217 0.0 0.0 0.00 0.00 0.00 78 1011.7
20210926071329 59 217 0.0 0.0 0.00 0.00 0.00 77 1011.7
20210926070831 59 217 0.0 0.0 0.00 0.00 0.00 77 1011.7
20210926070342 60 277 0.0 0.0 0.00 0.00 0.00 77 1011.6